Time;durP1;ratioP1;P1;durP2;ratioP2;P2;SDS_P1;SDS_P2;PMS_P1;PMS_P2;Temp;Humidity;BMP_temperature;BMP_pressure;BME280_temperature;BME280_humidity;BME280_pressure;Samples;Min_cycle;Max_cycle;Signal;HPM_P1;HPM_P2
2021/04/06 00:00:09;;;;;;;10.17;4.20;;;1.90;99.90;;;;;;5050956;28;20258;-81
2021/04/06 00:02:38;;;;;;;10.17;4.30;;;1.90;99.90;;;;;;5050833;28;20235;-82
2021/04/06 00:05:08;;;;;;;8.07;4.00;;;1.90;99.90;;;;;;5046708;28;20294;-81
2021/04/06 00:07:37;;;;;;;9.33;4.20;;;1.80;99.90;;;;;;5054766;28;20245;-81
2021/04/06 00:10:08;;;;;;;7.83;4.23;;;1.80;99.90;;;;;;5054346;28;20279;-81
2021/04/06 00:12:36;;;;;;;9.97;4.20;;;1.70;99.90;;;;;;5051507;28;20625;-81
2021/04/06 00:15:06;;;;;;;9.03;4.13;;;1.60;99.90;;;;;;5051871;28;20738;-81
2021/04/06 00:17:33;;;;;;;8.13;3.83;;;1.60;99.90;;;;;;5054956;28;20286;-81
2021/04/06 00:20:01;;;;;;;7.53;4.03;;;1.60;99.90;;;;;;5067445;28;20292;-80
2021/04/06 00:22:30;;;;;;;9.23;3.97;;;1.50;99.90;;;;;;5051874;28;20331;-82
2021/04/06 00:24:58;;;;;;;7.50;3.90;;;1.40;99.90;;;;;;5056084;28;20216;-81
2021/04/06 00:27:30;;;;;;;5.87;3.73;;;1.30;99.90;;;;;;5053637;28;20283;-81
2021/04/06 00:30:01;;;;;;;8.53;4.23;;;1.30;99.90;;;;;;5052583;28;20256;-81
2021/04/06 00:32:30;;;;;;;8.30;4.20;;;1.20;99.90;;;;;;5050893;28;20263;-81
2021/04/06 00:35:00;;;;;;;11.97;3.93;;;1.20;99.90;;;;;;5052021;28;20721;-81
2021/04/06 00:37:28;;;;;;;7.87;3.93;;;1.20;99.90;;;;;;5059382;28;20323;-81
2021/04/06 00:40:01;;;;;;;9.97;3.93;;;1.20;99.90;;;;;;5056560;28;20204;-80
2021/04/06 00:42:29;;;;;;;8.70;3.63;;;1.20;99.90;;;;;;5052049;28;20295;-82
2021/04/06 00:44:58;;;;;;;10.90;4.07;;;1.20;99.90;;;;;;5041394;28;20294;-81
2021/04/06 00:47:27;;;;;;;8.70;4.53;;;1.10;99.90;;;;;;5053171;28;20192;-81
2021/04/06 00:49:57;;;;;;;8.13;4.17;;;1.00;99.90;;;;;;5046520;28;20660;-82
2021/04/06 00:52:26;;;;;;;10.37;3.90;;;1.00;99.90;;;;;;5064055;28;20290;-81
2021/04/06 00:54:53;;;;;;;6.60;3.73;;;0.90;99.90;;;;;;5056683;28;20233;-81
2021/04/06 00:57:22;;;;;;;7.57;4.10;;;0.90;99.90;;;;;;5053767;28;20262;-81
2021/04/06 01:00:17;;;;;;;9.07;4.33;;;0.80;99.90;;;;;;5051559;28;20235;-82
2021/04/06 01:03:01;;;;;;;9.53;3.63;;;0.70;99.90;;;;;;5046845;28;20292;-81
2021/04/06 01:05:31;;;;;;;8.00;3.87;;;0.70;99.90;;;;;;5052164;28;20196;-81
2021/04/06 01:07:58;;;;;;;8.63;4.40;;;0.60;99.90;;;;;;5053825;28;20243;-81
2021/04/06 01:10:26;;;;;;;7.03;4.17;;;0.50;99.90;;;;;;5052679;28;20742;-81
2021/04/06 01:12:54;;;;;;;9.80;4.17;;;0.40;99.90;;;;;;5050897;28;20350;-82
2021/04/06 01:15:23;;;;;;;8.00;4.23;;;0.30;99.90;;;;;;5050441;28;20255;-81
2021/04/06 01:17:49;;;;;;;8.97;4.90;;;0.20;99.90;;;;;;5052715;28;20228;-80
2021/04/06 01:20:18;;;;;;;9.27;4.77;;;0.20;99.90;;;;;;5053657;28;20243;-81
2021/04/06 01:22:46;;;;;;;10.27;4.87;;;0.20;99.90;;;;;;5050275;28;20199;-81
2021/04/06 01:25:19;;;;;;;8.53;4.33;;;0.20;99.90;;;;;;5056222;28;20200;-81
2021/04/06 01:27:46;;;;;;;8.87;4.40;;;0.10;99.90;;;;;;5050207;28;20246;-81
2021/04/06 01:30:15;;;;;;;10.43;4.67;;;0.20;99.90;;;;;;5054415;28;20212;-81
2021/04/06 01:32:42;;;;;;;8.00;4.57;;;0.20;99.90;;;;;;5054422;28;20596;-81
2021/04/06 01:35:10;;;;;;;10.57;4.30;;;0.10;99.90;;;;;;5054211;28;20227;-82
2021/04/06 01:37:37;;;;;;;12.10;5.03;;;0.10;99.90;;;;;;5051813;28;20208;-81
2021/04/06 01:40:06;;;;;;;10.17;4.37;;;0.10;99.90;;;;;;5053517;28;20736;-81
2021/04/06 01:42:36;;;;;;;6.50;4.47;;;0.10;99.90;;;;;;5053742;28;20196;-81
2021/04/06 01:45:07;;;;;;;10.80;5.17;;;0.10;99.90;;;;;;5053262;28;20208;-81
2021/04/06 01:47:34;;;;;;;8.77;4.47;;;0.10;99.90;;;;;;5053642;28;20217;-81
2021/04/06 01:50:01;;;;;;;9.93;4.40;;;0.00;99.90;;;;;;5053524;28;20207;-82
2021/04/06 01:52:28;;;;;;;10.40;5.10;;;0.00;99.90;;;;;;5046380;28;20219;-81
2021/04/06 01:54:58;;;;;;;10.40;4.47;;;0.00;99.90;;;;;;5050646;28;20202;-81
2021/04/06 01:57:29;;;;;;;11.13;4.70;;;0.00;99.90;;;;;;5053288;28;20224;-82
2021/04/06 02:00:02;;;;;;;10.33;4.37;;;0.00;99.90;;;;;;5042818;28;20688;-81
2021/04/06 02:02:30;;;;;;;7.33;4.23;;;0.00;99.90;;;;;;5052892;28;20200;-81
2021/04/06 02:04:56;;;;;;;9.50;4.80;;;0.00;99.90;;;;;;5040291;28;20730;-81
2021/04/06 02:07:30;;;;;;;7.80;4.90;;;-0.10;99.90;;;;;;5051551;28;20192;-81
2021/04/06 02:09:58;;;;;;;9.40;4.83;;;0.00;99.90;;;;;;5049335;28;20663;-81
2021/04/06 02:12:25;;;;;;;9.93;4.83;;;-0.10;99.90;;;;;;5051040;28;20723;-81
2021/04/06 02:14:57;;;;;;;10.03;4.73;;;-0.10;99.90;;;;;;5053309;28;20203;-82
2021/04/06 02:17:25;;;;;;;8.23;4.53;;;-0.10;99.90;;;;;;5052958;28;20228;-82
2021/04/06 02:19:51;;;;;;;8.53;4.67;;;-0.20;99.90;;;;;;5045509;28;20281;-81
2021/04/06 02:22:20;;;;;;;11.37;4.90;;;-0.20;99.90;;;;;;5052326;28;20609;-82
2021/04/06 02:24:50;;;;;;;9.77;4.63;;;-0.20;99.90;;;;;;5038569;28;20286;-81
2021/04/06 02:27:19;;;;;;;8.57;4.83;;;-0.20;99.90;;;;;;5046828;28;20603;-81
2021/04/06 02:29:47;;;;;;;8.10;4.67;;;-0.30;99.90;;;;;;5052526;28;20211;-81
2021/04/06 02:32:16;;;;;;;8.53;4.37;;;-0.30;99.90;;;;;;5049501;28;20314;-81
2021/04/06 02:34:45;;;;;;;10.67;4.83;;;-0.30;99.90;;;;;;5051951;28;20632;-82
2021/04/06 02:37:16;;;;;;;9.10;5.10;;;-0.30;99.90;;;;;;5050017;28;20258;-81
2021/04/06 02:39:43;;;;;;;7.93;4.57;;;-0.30;99.90;;;;;;5052582;28;20291;-81
2021/04/06 02:42:28;;;;;;;12.70;5.27;;;-0.30;99.90;;;;;;5051642;28;20234;-82
2021/04/06 02:45:07;;;;;;;8.93;4.93;;;-0.30;99.90;;;;;;5052334;28;20299;-82
2021/04/06 02:47:36;;;;;;;12.23;5.17;;;-0.30;99.90;;;;;;5046950;28;20737;-81
2021/04/06 02:50:05;;;;;;;10.37;5.00;;;-0.30;99.90;;;;;;5052199;28;20246;-81
2021/04/06 02:52:32;;;;;;;10.47;4.93;;;-0.40;99.90;;;;;;5052353;28;20735;-82
2021/04/06 02:54:58;;;;;;;7.90;4.40;;;-0.50;99.90;;;;;;5049889;28;20207;-81
2021/04/06 02:57:26;;;;;;;8.47;4.57;;;-0.50;99.90;;;;;;5051136;28;20227;-81
2021/04/06 02:59:53;;;;;;;8.63;4.87;;;-0.60;99.90;;;;;;5053069;28;20230;-81
2021/04/06 03:02:20;;;;;;;9.47;4.60;;;-0.60;99.90;;;;;;5047833;28;20239;-81
2021/04/06 03:04:48;;;;;;;7.70;4.70;;;-0.70;99.90;;;;;;5050533;28;20556;-82
2021/04/06 03:07:20;;;;;;;10.77;4.73;;;-0.70;99.90;;;;;;5051856;28;20583;-81
2021/04/06 03:09:56;;;;;;;8.03;4.90;;;-0.70;99.90;;;;;;5051828;28;20299;-81
2021/04/06 03:12:28;;;;;;;7.77;4.07;;;-0.60;99.90;;;;;;5051007;28;20692;-82
2021/04/06 03:14:54;;;;;;;7.90;4.07;;;-0.70;99.90;;;;;;5051954;28;20215;-82
2021/04/06 03:17:21;;;;;;;8.00;4.37;;;-0.80;99.90;;;;;;5048408;28;20311;-81
2021/04/06 03:19:55;;;;;;;8.73;4.53;;;-0.90;99.90;;;;;;5046281;28;20282;-81
2021/04/06 03:22:24;;;;;;;9.80;4.33;;;-0.90;99.90;;;;;;5051873;28;20221;-83
2021/04/06 03:24:51;;;;;;;7.90;4.53;;;-0.90;99.90;;;;;;5051681;28;20297;-81
2021/04/06 03:27:27;;;;;;;9.07;4.77;;;-0.90;99.90;;;;;;5040011;28;20201;-81
2021/04/06 03:29:54;;;;;;;9.20;4.50;;;-0.90;99.90;;;;;;5058874;28;20289;-81
2021/04/06 03:32:22;;;;;;;8.37;4.10;;;-0.80;99.90;;;;;;5050119;28;20317;-82
2021/04/06 03:34:49;;;;;;;7.67;4.27;;;-0.90;99.90;;;;;;5051936;28;20203;-82
2021/04/06 03:37:16;;;;;;;7.40;4.00;;;-0.90;99.90;;;;;;5050805;28;20238;-81
2021/04/06 03:39:44;;;;;;;6.60;4.20;;;-0.90;99.90;;;;;;5051794;28;20294;-82
2021/04/06 03:42:10;;;;;;;6.93;4.30;;;-1.00;99.90;;;;;;5051543;28;20290;-82
2021/04/06 03:44:36;;;;;;;7.33;3.93;;;-1.10;99.90;;;;;;5051317;28;20250;-82
2021/04/06 03:47:05;;;;;;;8.47;4.50;;;-1.20;99.90;;;;;;5051478;28;20231;-82
2021/04/06 03:49:33;;;;;;;6.67;4.40;;;-1.30;99.90;;;;;;5051424;28;20282;-82
2021/04/06 03:52:01;;;;;;;8.90;4.63;;;-1.30;99.90;;;;;;5050277;28;20216;-82
2021/04/06 03:54:37;;;;;;;9.30;4.30;;;-1.30;99.90;;;;;;5048449;28;20278;-82
2021/04/06 03:57:32;;;;;;;9.03;4.90;;;-1.30;99.90;;;;;;5051381;28;20291;-82
2021/04/06 03:59:59;;;;;;;9.00;4.43;;;-1.30;99.90;;;;;;5046006;28;20275;-82
2021/04/06 04:02:26;;;;;;;11.17;4.60;;;-1.30;99.90;;;;;;5050314;28;20691;-82
2021/04/06 04:04:53;;;;;;;7.90;4.60;;;-1.30;99.90;;;;;;5051915;28;20286;-82
2021/04/06 04:07:20;;;;;;;10.43;4.50;;;-1.30;99.90;;;;;;5050914;28;20245;-82
2021/04/06 04:09:46;;;;;;;6.47;4.40;;;-1.30;99.90;;;;;;5051056;28;20287;-82
2021/04/06 04:12:13;;;;;;;8.60;4.60;;;-1.30;99.90;;;;;;5050634;28;20350;-82
2021/04/06 04:14:40;;;;;;;7.93;4.80;;;-1.30;99.90;;;;;;5048839;28;20192;-82
2021/04/06 04:17:07;;;;;;;9.67;4.73;;;-1.20;99.90;;;;;;5048021;28;20254;-82
2021/04/06 04:19:33;;;;;;;9.17;4.90;;;-1.30;99.90;;;;;;5049096;28;20200;-82
2021/04/06 04:22:00;;;;;;;9.97;5.60;;;-1.30;99.90;;;;;;5050341;28;20203;-82
2021/04/06 04:24:26;;;;;;;11.83;6.43;;;-1.20;99.90;;;;;;5050981;28;20314;-82
2021/04/06 04:26:53;;;;;;;11.07;6.50;;;-1.20;99.90;;;;;;5050759;28;20282;-82
2021/04/06 04:29:19;;;;;;;10.50;5.90;;;-1.20;99.90;;;;;;5047349;28;20294;-82
2021/04/06 04:31:49;;;;;;;7.37;5.00;;;-1.40;99.90;;;;;;5047805;28;20255;-82
2021/04/06 04:34:15;;;;;;;9.23;4.70;;;-1.40;99.90;;;;;;5050965;28;20199;-82
2021/04/06 04:36:42;;;;;;;7.40;3.90;;;-1.60;99.90;;;;;;5053714;28;20306;-82
2021/04/06 04:39:09;;;;;;;7.73;4.30;;;-1.60;99.90;;;;;;5062047;28;20231;-82
2021/04/06 04:41:36;;;;;;;5.97;3.70;;;-1.70;99.90;;;;;;5050707;28;20291;-82
2021/04/06 04:44:03;;;;;;;8.93;4.07;;;-1.70;99.90;;;;;;5050850;28;20720;-82
2021/04/06 04:46:30;;;;;;;7.93;4.23;;;-1.80;99.90;;;;;;5050688;28;20306;-82
2021/04/06 04:48:58;;;;;;;12.00;4.93;;;-1.80;99.90;;;;;;5046973;28;20201;-82
2021/04/06 04:51:24;;;;;;;9.73;4.70;;;-1.70;99.90;;;;;;5050989;28;20579;-82
2021/04/06 04:53:51;;;;;;;10.30;5.00;;;-1.70;99.90;;;;;;5054206;28;20279;-81
2021/04/06 04:56:17;;;;;;;8.77;4.60;;;-1.70;99.90;;;;;;5054586;28;20322;-81
2021/04/06 04:58:43;;;;;;;11.67;4.63;;;-1.70;99.90;;;;;;5053973;28;20244;-82
2021/04/06 05:01:11;;;;;;;9.40;4.53;;;-1.80;99.90;;;;;;5054036;28;20290;-82
2021/04/06 05:03:38;;;;;;;10.07;5.00;;;-1.80;99.90;;;;;;5054325;28;20292;-82
2021/04/06 05:06:06;;;;;;;9.40;4.70;;;-1.70;99.90;;;;;;5053986;28;20668;-82
2021/04/06 05:08:32;;;;;;;10.10;4.70;;;-1.70;99.90;;;;;;5051662;28;20298;-81
2021/04/06 05:10:58;;;;;;;9.17;5.20;;;-1.70;99.90;;;;;;5054008;28;20293;-81
2021/04/06 05:13:26;;;;;;;12.07;5.23;;;-1.70;99.90;;;;;;5053164;28;20247;-83
2021/04/06 05:15:52;;;;;;;11.03;5.90;;;-1.80;99.90;;;;;;5053894;28;20223;-79
2021/04/06 05:18:19;;;;;;;9.97;5.50;;;-1.80;99.90;;;;;;5052938;28;20204;-85
2021/04/06 05:20:45;;;;;;;10.27;5.60;;;-1.80;99.90;;;;;;5053308;28;20268;-84
2021/04/06 05:23:13;;;;;;;11.83;5.67;;;-1.90;99.90;;;;;;5054789;28;20228;-86
2021/04/06 05:25:40;;;;;;;8.00;5.07;;;-1.90;99.90;;;;;;5056715;28;20293;-87
2021/04/06 05:28:07;;;;;;;10.00;5.10;;;-2.00;99.90;;;;;;5053032;28;20214;-86
2021/04/06 05:30:34;;;;;;;9.63;5.17;;;-2.10;99.90;;;;;;5052460;28;20239;-86
2021/04/06 05:33:00;;;;;;;10.27;4.93;;;-2.10;99.90;;;;;;5055772;28;20238;-85
2021/04/06 05:35:27;;;;;;;10.63;5.90;;;-2.00;99.90;;;;;;5052971;28;20223;-81
2021/04/06 05:37:53;;;;;;;9.17;4.60;;;-2.00;99.90;;;;;;5051146;28;20313;-85
2021/04/06 05:40:21;;;;;;;11.60;5.50;;;-1.80;99.90;;;;;;5051187;28;20234;-84
2021/04/06 05:42:48;;;;;;;11.33;6.07;;;-1.80;99.90;;;;;;5050461;28;20283;-84
2021/04/06 05:45:16;;;;;;;14.63;6.57;;;-1.80;99.90;;;;;;5052041;28;20202;-83
2021/04/06 05:47:46;;;;;;;12.93;6.57;;;-1.70;99.90;;;;;;5053471;28;20720;-83
2021/04/06 05:50:13;;;;;;;12.00;6.30;;;-1.70;99.90;;;;;;5046776;28;20287;-82
2021/04/06 05:52:40;;;;;;;11.67;6.27;;;-1.60;99.90;;;;;;5049825;28;20633;-82
2021/04/06 05:55:07;;;;;;;12.87;6.10;;;-1.60;99.90;;;;;;5054384;28;20293;-81
2021/04/06 05:57:35;;;;;;;13.20;6.57;;;-1.60;99.90;;;;;;5052426;28;20227;-81
2021/04/06 06:00:02;;;;;;;11.97;6.60;;;-1.50;99.90;;;;;;5052023;28;20247;-81
2021/04/06 06:02:30;;;;;;;15.60;6.63;;;-1.20;99.90;;;;;;5053490;28;20342;-83
2021/04/06 06:04:57;;;;;;;13.83;7.57;;;-0.80;99.90;;;;;;5037009;28;20283;-85
2021/04/06 06:07:24;;;;;;;16.20;7.27;;;-0.50;99.90;;;;;;5053156;28;20309;-83
2021/04/06 06:09:51;;;;;;;13.83;6.80;;;-0.40;99.90;;;;;;5046962;28;20217;-83
2021/04/06 06:12:19;;;;;;;12.27;6.50;;;-0.40;99.90;;;;;;5040458;28;20257;-82
2021/04/06 06:14:48;;;;;;;10.30;6.67;;;-0.30;99.90;;;;;;5052210;28;20200;-83
2021/04/06 06:17:17;;;;;;;13.57;6.53;;;-0.20;99.90;;;;;;5052386;28;20227;-83
2021/04/06 06:19:45;;;;;;;11.30;6.20;;;-0.10;99.90;;;;;;5038952;28;20205;-84
2021/04/06 06:22:14;;;;;;;12.33;7.30;;;0.10;99.90;;;;;;5038411;28;20291;-83
2021/04/06 06:24:44;;;;;;;10.87;6.63;;;0.30;99.90;;;;;;5035225;28;20197;-83
2021/04/06 06:27:37;;;;;;;14.47;8.30;;;0.70;99.90;;;;;;5033222;28;20223;-83
2021/04/06 06:30:32;;;;;;;13.83;8.23;;;1.10;99.90;;;;;;5039263;28;20219;-84
2021/04/06 06:33:16;;;;;;;13.93;7.43;;;1.40;99.90;;;;;;5063067;28;20264;-84
2021/04/06 06:35:44;;;;;;;11.33;6.67;;;1.80;99.90;;;;;;5031943;28;20214;-83
2021/04/06 06:38:15;;;;;;;10.77;7.30;;;2.10;99.90;;;;;;5046831;28;20281;-85
2021/04/06 06:40:42;;;;;;;14.20;8.20;;;2.60;99.90;;;;;;5044054;28;20295;-84
2021/04/06 06:43:11;;;;;;;10.83;7.23;;;3.50;99.90;;;;;;5042105;28;20224;-84
2021/04/06 06:45:39;;;;;;;13.83;7.43;;;4.30;99.90;;;;;;5043079;28;20197;-84
2021/04/06 06:48:07;;;;;;;10.33;6.80;;;5.00;99.90;;;;;;5050973;28;20739;-84
2021/04/06 06:50:46;;;;;;;10.23;5.50;;;5.90;99.90;;;;;;5048872;28;20285;-84
2021/04/06 06:53:12;;;;;;;12.00;5.83;;;6.20;99.90;;;;;;5044327;28;20553;-84
2021/04/06 06:55:39;;;;;;;10.83;5.80;;;6.40;99.90;;;;;;5051100;28;20232;-85
2021/04/06 06:58:07;;;;;;;9.83;6.03;;;7.00;99.90;;;;;;5048149;28;20297;-84
2021/04/06 07:00:34;;;;;;;9.33;5.73;;;7.40;99.90;;;;;;5040565;28;20597;-84
2021/04/06 07:03:01;;;;;;;9.27;5.57;;;7.70;99.90;;;;;;5048568;28;20202;-85
2021/04/06 07:05:29;;;;;;;10.43;6.00;;;7.80;99.90;;;;;;5046682;28;20717;-84
2021/04/06 07:08:02;;;;;;;9.90;5.60;;;8.00;99.90;;;;;;5040884;28;20688;-84
2021/04/06 07:10:34;;;;;;;8.90;6.20;;;8.40;99.90;;;;;;5048638;28;20274;-85
2021/04/06 07:16:56;;;;;;;9.87;5.97;;;9.30;99.90;;;;;;4980889;28;20240;-84
2021/04/06 07:19:45;;;;;;;8.57;6.30;;;9.80;99.90;;;;;;4993355;28;20728;-85
2021/04/06 07:22:14;;;;;;;8.23;5.37;;;10.00;99.90;;;;;;5008016;28;20288;-84
2021/04/06 07:24:42;;;;;;;10.33;6.30;;;10.60;99.90;;;;;;5004966;28;20941;-85
2021/04/06 07:27:10;;;;;;;8.47;5.73;;;10.90;99.90;;;;;;4999727;28;20292;-84
2021/04/06 07:29:38;;;;;;;10.33;6.40;;;11.30;99.90;;;;;;5003681;28;20276;-84
2021/04/06 07:32:10;;;;;;;9.17;5.07;;;11.60;99.90;;;;;;5009373;28;20252;-84
2021/04/06 07:34:39;;;;;;;7.57;5.03;;;12.00;99.90;;;;;;5004582;28;20338;-85
2021/04/06 07:37:08;;;;;;;8.93;5.13;;;11.70;99.90;;;;;;5003658;28;20319;-85
2021/04/06 07:39:36;;;;;;;8.10;3.93;;;10.30;99.90;;;;;;4991955;28;20241;-85
2021/04/06 07:42:03;;;;;;;5.93;3.67;;;8.80;99.90;;;;;;4999429;28;20197;-85
2021/04/06 07:44:34;;;;;;;8.73;4.67;;;7.50;99.90;;;;;;5006947;28;20788;-85
2021/04/06 07:47:00;;;;;;;6.27;3.57;;;7.20;99.90;;;;;;5004907;28;20295;-84
2021/04/06 07:49:37;;;;;;;5.40;3.83;;;7.20;99.90;;;;;;4999561;28;20721;-85
2021/04/06 07:52:05;;;;;;;7.93;3.53;;;6.90;99.90;;;;;;5010580;28;20669;-84
2021/04/06 07:54:49;;;;;;;9.63;3.87;;;6.70;99.90;;;;;;5043074;28;20254;-84
2021/04/06 07:57:16;;;;;;;6.40;3.47;;;6.30;99.90;;;;;;5042643;28;20305;-84
2021/04/06 07:59:52;;;;;;;6.53;3.37;;;6.30;99.90;;;;;;5052798;28;20277;-85
2021/04/06 08:02:32;;;;;;;5.87;2.97;;;6.50;99.90;;;;;;5042925;28;20283;-85
2021/04/06 08:05:10;;;;;;;4.83;2.80;;;7.60;99.90;;;;;;5039457;28;20665;-85
2021/04/06 08:07:37;;;;;;;7.63;3.00;;;8.80;99.90;;;;;;5035085;28;20215;-85
2021/04/06 08:10:41;;;;;;;4.90;2.87;;;8.50;99.90;;;;;;5043455;28;20638;-85
2021/04/06 08:13:12;;;;;;;5.17;2.60;;;8.20;99.90;;;;;;5044221;28;20260;-84
2021/04/06 08:15:38;;;;;;;4.87;2.43;;;8.60;99.90;;;;;;5042877;28;20192;-82
2021/04/06 08:18:06;;;;;;;3.47;2.23;;;9.10;99.90;;;;;;5036091;28;20287;-84
2021/04/06 08:20:46;;;;;;;6.07;2.57;;;8.90;99.90;;;;;;5040193;28;20229;-85
2021/04/06 08:23:38;;;;;;;4.20;2.27;;;10.20;99.90;;;;;;5047741;28;20203;-85
2021/04/06 08:26:05;;;;;;;7.50;4.03;;;11.70;99.90;;;;;;5047041;28;20211;-83
2021/04/06 08:28:37;;;;;;;25.47;15.53;;;11.10;99.90;;;;;;5039116;28;20796;-82
2021/04/06 08:31:42;;;;;;;3.90;2.20;;;10.00;99.90;;;;;;5045299;28;20202;-83
2021/04/06 08:34:30;;;;;;;6.63;2.20;;;9.50;99.90;;;;;;5051463;28;20708;-82
2021/04/06 08:37:09;;;;;;;19.27;11.23;;;8.60;99.90;;;;;;5048251;28;20292;-81
2021/04/06 08:39:37;;;;;;;43.17;26.27;;;7.80;99.90;;;;;;5042189;28;20200;-81
2021/04/06 08:42:05;;;;;;;5.03;3.00;;;7.40;99.90;;;;;;5054386;28;20196;-82
2021/04/06 08:44:34;;;;;;;5.13;2.07;;;7.40;99.90;;;;;;5053656;28;20254;-82
2021/04/06 08:47:02;;;;;;;6.53;4.37;;;7.50;99.90;;;;;;5044537;28;20200;-81
2021/04/06 08:49:28;;;;;;;7.00;4.13;;;8.20;99.90;;;;;;5045100;28;20590;-81
2021/04/06 08:51:56;;;;;;;7.50;3.70;;;9.10;99.90;;;;;;5042113;28;20227;-82
2021/04/06 08:54:24;;;;;;;6.83;2.37;;;9.80;99.90;;;;;;5042173;28;20200;-82
2021/04/06 08:56:53;;;;;;;2.37;1.60;;;9.70;99.90;;;;;;5049892;28;20241;-84
2021/04/06 08:59:24;;;;;;;4.87;1.77;;;9.70;99.90;;;;;;5040130;28;20224;-81
2021/04/06 09:01:56;;;;;;;4.87;2.70;;;9.20;99.90;;;;;;5051942;28;20204;-82
2021/04/06 09:04:24;;;;;;;3.50;2.10;;;8.80;99.90;;;;;;5051767;28;20250;-81
2021/04/06 09:06:51;;;;;;;3.53;2.20;;;8.70;99.90;;;;;;5049197;28;20192;-81
2021/04/06 09:09:20;;;;;;;3.67;1.73;;;9.30;99.90;;;;;;5044947;28;20774;-81
2021/04/06 09:11:47;;;;;;;5.57;1.93;;;9.30;99.90;;;;;;5040929;28;20226;-81
2021/04/06 09:14:14;;;;;;;4.30;1.77;;;10.00;99.90;;;;;;5044263;28;20242;-81
2021/04/06 09:16:42;;;;;;;4.43;2.10;;;10.60;99.90;;;;;;5050336;28;20306;-81
2021/04/06 09:19:10;;;;;;;3.57;1.97;;;12.40;99.90;;;;;;5045883;28;20216;-81
2021/04/06 09:21:39;;;;;;;3.10;1.90;;;13.30;99.90;;;;;;5047368;28;20257;-82
2021/04/06 09:24:08;;;;;;;3.03;1.67;;;14.70;99.90;;;;;;5048452;28;20298;-81
2021/04/06 09:26:35;;;;;;;5.07;2.23;;;13.60;99.90;;;;;;5045278;28;20283;-81
2021/04/06 09:29:06;;;;;;;4.50;2.27;;;11.20;99.90;;;;;;5042972;28;20211;-82
2021/04/06 09:31:34;;;;;;;6.00;2.30;;;12.30;99.90;;;;;;5039581;28;20251;-81
2021/04/06 09:34:13;;;;;;;8.43;3.00;;;11.70;99.90;;;;;;5053332;28;20285;-81
2021/04/06 09:36:42;;;;;;;10.53;5.60;;;10.80;99.90;;;;;;5047024;28;20212;-82
2021/04/06 09:39:11;;;;;;;7.17;2.80;;;11.30;99.90;;;;;;5045770;28;20238;-81
2021/04/06 09:41:42;;;;;;;2.67;2.27;;;10.00;99.90;;;;;;5047962;28;20231;-81
2021/04/06 09:44:14;;;;;;;3.30;2.00;;;9.50;99.90;;;;;;5053127;28;20203;-80
2021/04/06 09:46:43;;;;;;;2.83;1.33;;;9.80;99.90;;;;;;5038550;28;20301;-81
2021/04/06 09:49:12;;;;;;;3.57;1.63;;;10.50;99.90;;;;;;5041293;28;20578;-80
2021/04/06 09:51:39;;;;;;;3.27;1.30;;;10.20;99.90;;;;;;5045081;28;20257;-81
2021/04/06 09:54:06;;;;;;;4.70;1.60;;;10.30;99.90;;;;;;5054077;28;20200;-81
2021/04/06 09:56:36;;;;;;;3.73;2.10;;;11.60;99.90;;;;;;5053520;28;20306;-81
2021/04/06 09:59:04;;;;;;;3.43;1.40;;;12.20;99.90;;;;;;5053512;28;20746;-82
2021/04/06 10:01:31;;;;;;;4.30;1.60;;;10.80;99.50;;;;;;5051411;28;20643;-81
2021/04/06 10:04:00;;;;;;;6.13;1.83;;;11.60;99.90;;;;;;5048983;28;20341;-82
2021/04/06 10:06:40;;;;;;;2.70;1.73;;;13.40;99.90;;;;;;5044795;28;20197;-82
2021/04/06 10:09:20;;;;;;;4.33;2.50;;;13.70;98.10;;;;;;5045822;28;20207;-82
2021/04/06 10:11:48;;;;;;;6.03;4.00;;;13.60;97.90;;;;;;5047990;28;20201;-82
2021/04/06 10:14:14;;;;;;;4.27;1.23;;;12.20;98.00;;;;;;5044266;28;20283;-82
2021/04/06 10:16:42;;;;;;;11.90;2.57;;;12.50;97.90;;;;;;5048540;28;20302;-83
2021/04/06 10:19:23;;;;;;;6.67;2.50;;;13.60;99.90;;;;;;5041850;28;20205;-83
2021/04/06 10:22:06;;;;;;;4.47;1.10;;;13.20;93.30;;;;;;5039045;28;20204;-82
2021/04/06 10:24:34;;;;;;;2.67;1.40;;;13.20;95.50;;;;;;5053404;28;20614;-82
2021/04/06 10:27:06;;;;;;;5.67;1.63;;;12.10;95.00;;;;;;5047566;28;20228;-82
2021/04/06 10:29:33;;;;;;;3.70;1.60;;;9.90;95.30;;;;;;5038763;28;20232;-82
2021/04/06 10:32:01;;;;;;;4.23;1.10;;;8.40;97.50;;;;;;5041718;28;20238;-81
2021/04/06 10:34:28;;;;;;;2.50;1.10;;;8.50;99.20;;;;;;5051874;28;20199;-82
2021/04/06 10:37:00;;;;;;;2.53;1.20;;;11.40;99.10;;;;;;5051711;28;20311;-82
2021/04/06 10:39:36;;;;;;;6.13;0.90;;;12.30;94.80;;;;;;5047953;28;20229;-81
2021/04/06 10:42:04;;;;;;;3.17;1.30;;;13.70;95.50;;;;;;5049078;28;20286;-82
2021/04/06 10:44:31;;;;;;;3.30;1.33;;;13.60;93.50;;;;;;5050228;28;20718;-81
2021/04/06 10:46:58;;;;;;;4.80;0.90;;;13.40;91.40;;;;;;5050422;28;20223;-83
2021/04/06 10:49:34;;;;;;;5.87;1.20;;;13.20;91.20;;;;;;5044264;28;20261;-83
2021/04/06 10:52:07;;;;;;;3.63;1.00;;;14.00;91.10;;;;;;5051715;28;20209;-83
2021/04/06 10:54:36;;;;;;;3.80;1.10;;;14.10;89.20;;;;;;5056440;28;20598;-83
2021/04/06 10:57:03;;;;;;;2.90;0.80;;;14.00;90.40;;;;;;5045489;28;20644;-84
2021/04/06 10:59:31;;;;;;;3.37;1.00;;;12.50;87.60;;;;;;5047517;28;20287;-84
2021/04/06 11:01:58;;;;;;;3.00;1.10;;;11.80;90.60;;;;;;5032823;28;20292;-84
2021/04/06 11:04:26;;;;;;;2.80;0.97;;;10.90;92.50;;;;;;5042871;28;20667;-84
2021/04/06 11:06:57;;;;;;;3.70;1.00;;;10.20;94.90;;;;;;5043888;28;20226;-85
2021/04/06 11:09:25;;;;;;;3.20;1.10;;;12.90;96.00;;;;;;5037302;28;20273;-84
2021/04/06 11:11:55;;;;;;;3.87;1.20;;;13.40;91.20;;;;;;5037711;28;20199;-84
2021/04/06 11:14:23;;;;;;;4.17;0.90;;;14.30;91.40;;;;;;5039794;28;20276;-84
2021/04/06 11:16:50;;;;;;;2.80;1.10;;;14.10;91.60;;;;;;5038039;28;20227;-84
2021/04/06 11:19:18;;;;;;;2.57;0.70;;;14.60;88.90;;;;;;5039391;28;20910;-84
2021/04/06 11:21:46;;;;;;;4.40;1.20;;;14.30;81.90;;;;;;5054312;28;20196;-84
2021/04/06 11:24:14;;;;;;;2.50;0.67;;;15.90;91.00;;;;;;5055034;28;20236;-83
2021/04/06 11:26:42;;;;;;;4.93;1.00;;;14.70;83.40;;;;;;5051195;28;20226;-84
2021/04/06 11:29:12;;;;;;;5.63;1.23;;;15.40;85.90;;;;;;5051905;28;20244;-84
2021/04/06 11:31:40;;;;;;;5.10;1.00;;;14.50;82.70;;;;;;5039299;28;20303;-85
2021/04/06 11:34:16;;;;;;;2.67;1.00;;;12.40;86.70;;;;;;5047409;28;20247;-86
2021/04/06 11:36:43;;;;;;;2.77;1.30;;;11.10;89.30;;;;;;5040047;28;20223;-81
2021/04/06 11:39:12;;;;;;;3.63;0.90;;;10.90;93.00;;;;;;5049601;28;20290;-82
2021/04/06 11:41:45;;;;;;;2.07;0.80;;;12.30;93.40;;;;;;5041922;28;20228;-82
2021/04/06 11:44:13;;;;;;;2.63;1.50;;;12.40;90.20;;;;;;5042452;28;20212;-83
2021/04/06 11:46:40;;;;;;;7.13;3.30;;;13.20;92.40;;;;;;5044782;28;20296;-83
2021/04/06 11:49:09;;;;;;;4.50;1.20;;;13.00;91.60;;;;;;5039671;28;20845;-83
2021/04/06 11:51:36;;;;;;;3.93;1.20;;;11.00;92.60;;;;;;5041564;28;20641;-83
2021/04/06 11:54:04;;;;;;;4.37;1.80;;;11.30;95.80;;;;;;5040075;28;20287;-83
2021/04/06 11:56:30;;;;;;;3.60;1.23;;;12.40;95.30;;;;;;5044178;28;20223;-82
2021/04/06 11:58:57;;;;;;;3.07;1.10;;;13.50;95.40;;;;;;5046114;28;20236;-84
2021/04/06 12:01:24;;;;;;;3.43;1.20;;;14.00;95.90;;;;;;5045467;28;20211;-83
2021/04/06 12:03:51;;;;;;;3.67;1.00;;;13.80;92.30;;;;;;5044670;28;20196;-83
2021/04/06 12:06:17;;;;;;;2.60;1.10;;;13.70;94.70;;;;;;5042261;28;20281;-83
2021/04/06 12:08:44;;;;;;;4.53;1.30;;;12.90;94.90;;;;;;5042996;28;20254;-83
2021/04/06 12:11:10;;;;;;;5.83;2.37;;;14.20;97.10;;;;;;5055200;28;20237;-83
2021/04/06 12:13:37;;;;;;;8.73;3.80;;;15.30;96.00;;;;;;5047795;28;20227;-84
2021/04/06 12:16:05;;;;;;;5.73;2.77;;;15.70;92.70;;;;;;5051021;28;20227;-83
2021/04/06 12:18:32;;;;;;;2.93;0.67;;;15.50;92.80;;;;;;5050730;28;20291;-84
2021/04/06 12:20:59;;;;;;;4.33;1.30;;;15.40;90.40;;;;;;5052023;28;20699;-81
2021/04/06 12:23:42;;;;;;;3.00;0.80;;;14.10;92.10;;;;;;5051585;28;20196;-81
2021/04/06 12:26:10;;;;;;;5.03;2.07;;;14.00;90.70;;;;;;5045701;28;20238;-81
2021/04/06 12:28:37;;;;;;;1.97;0.90;;;12.60;91.20;;;;;;5045443;28;20291;-81
2021/04/06 12:31:04;;;;;;;2.43;0.80;;;12.00;94.30;;;;;;5043930;28;20228;-83
2021/04/06 12:33:32;;;;;;;3.50;1.10;;;13.50;95.30;;;;;;5045969;28;20264;-82
2021/04/06 12:35:59;;;;;;;2.97;0.70;;;14.50;94.00;;;;;;5041744;28;20225;-83
2021/04/06 12:38:25;;;;;;;4.10;0.90;;;15.10;92.30;;;;;;5046893;28;20215;-83
2021/04/06 12:40:52;;;;;;;2.50;0.80;;;15.30;93.00;;;;;;5055511;28;20235;-83
2021/04/06 12:43:18;;;;;;;4.70;1.03;;;16.00;90.60;;;;;;5042316;28;20632;-83
2021/04/06 12:45:45;;;;;;;1.70;0.60;;;13.00;92.30;;;;;;5050664;28;20286;-83
2021/04/06 12:48:11;;;;;;;39.87;3.00;;;13.20;93.40;;;;;;5052195;28;20287;-82
2021/04/06 12:50:39;;;;;;;6.00;1.00;;;12.80;91.30;;;;;;5043684;28;20746;-83
2021/04/06 12:53:05;;;;;;;2.90;1.00;;;12.10;95.10;;;;;;5041650;28;20239;-82
2021/04/06 12:55:31;;;;;;;4.17;0.90;;;12.80;94.00;;;;;;5048434;28;20246;-81
2021/04/06 12:57:58;;;;;;;4.60;0.90;;;13.10;94.50;;;;;;5047554;28;20266;-81
2021/04/06 13:00:25;;;;;;;6.40;0.80;;;12.70;95.00;;;;;;5046157;28;20606;-81
2021/04/06 13:02:52;;;;;;;2.93;0.73;;;11.40;95.00;;;;;;5049157;28;20576;-82